Trumbull, Connecticut
Current Conditions -  °F | °C
As of 8:52 PM on Friday 28 Nov 2014 (Local Time) from KBDR Reporting Station
Clear Clear  
Wind Chill: 21°   Ceiling: Unl
Heat Index: 28°   Visibility: 10mi
Dew Point: 14°   Wind: 7mph
Humidity: 56%   Direction: 320°NW
Pressure: 30.25"   Gusts: NA
Location:  41.23°N, 73.22°W
Report Text: KBDR 290152Z AUTO 32006KT 10SM CLR M02/M10 A3025 RMK AO2 SLP244 T10221100 TSNO
Loading
Personal Weather Stations






























Interactive Weather Map New forecast layout! Learn more

10-Day Weather Forecast

Advertisements
Track Severe Weather on mobile